Bucyrus, Ohio
Current Conditions -  °F | °C
As of 7:10 AM on Friday 24 Oct 2014 (Local Time) from KMNN Reporting Station
Haze Haze  
Wind Chill: 37°   Ceiling: Unl
Heat Index: 37°   Visibility: 2.5mi
Dew Point: 35°   Wind: 0mph
Humidity: 93%   Direction: NA
Pressure: 30.11"   Gusts: NA
Location:  40.81°N, 82.98°W
Report Text: KMNN 241110Z AUTO 00000KT 2 1/2SM BR CLR 03/02 A3011 RMK AO2 T00280017 TSNO
Loading
Personal Weather Stations






























Interactive Weather Map
Tropical Storm Tracking
New forecast layout! Learn more

10-Day Weather Forecast

Advertisements
Track Severe Weather on mobile